Terminal Aerodrome Forecast
Issued by NWS Glasgow, MT

Home | Current Version | Previous Version | Text Only | Print | Product List | Glossary On
Versions: 1 2 3 4 5 6 7 8 9 10 11 12 13 14 15 16
000
FTUS45 KGGW 291728
TAFGGW
TAF
KGGW 291728Z 2918/3018 17006KT 6SM -SHRA SCT050 OVC080
     FM291900 VRB05KT P6SM VCSH SCT070 BKN120
      TEMPO 2919/2922 -TSRA SCT040 BKN070CB
     FM292300 VRB03KT P6SM FEW110=

USA.gov is the U.S. government's official web portal to all federal, state and local government web resources and services.